Time;durP1;ratioP1;P1;durP2;ratioP2;P2;SDS_P1;SDS_P2;PMS_P1;PMS_P2;Temp;Humidity;BMP_temperature;BMP_pressure;BME280_temperature;BME280_humidity;BME280_pressure;Samples;Min_cycle;Max_cycle;Signal;HPM_P1;HPM_P2
2020/12/22 00:00:31;;;;;;;1.37;0.30;;;12.40;99.90;;;;;;5097333;28;20051;-67
2020/12/22 00:02:57;;;;;;;4.10;1.10;;;12.50;99.90;;;;;;5096717;28;20304;-66
2020/12/22 00:05:23;;;;;;;0.87;0.57;;;12.50;99.90;;;;;;5097082;28;20032;-66
2020/12/22 00:07:49;;;;;;;2.57;0.60;;;12.50;99.90;;;;;;5095486;28;20035;-66
2020/12/22 00:10:14;;;;;;;4.93;1.03;;;12.60;99.90;;;;;;5095809;28;20040;-67
2020/12/22 00:12:40;;;;;;;3.83;0.77;;;12.60;99.90;;;;;;5095593;28;20036;-66
2020/12/22 00:15:07;;;;;;;1.90;0.70;;;12.70;99.90;;;;;;5095480;28;20131;-66
2020/12/22 00:17:33;;;;;;;2.87;1.23;;;12.70;99.90;;;;;;5097135;28;20249;-66
2020/12/22 00:19:59;;;;;;;1.60;0.50;;;12.70;99.90;;;;;;5095862;28;20034;-66
2020/12/22 00:22:25;;;;;;;2.03;0.60;;;12.70;99.90;;;;;;5095617;28;20435;-66
2020/12/22 00:24:50;;;;;;;2.37;0.77;;;12.70;99.90;;;;;;5095292;28;20431;-66
2020/12/22 00:27:16;;;;;;;4.20;0.80;;;12.70;99.90;;;;;;5096510;28;20055;-66
2020/12/22 00:29:42;;;;;;;5.00;1.37;;;12.80;99.90;;;;;;5096221;28;20036;-66
2020/12/22 00:32:08;;;;;;;3.17;0.50;;;12.80;99.90;;;;;;5095111;28;20055;-66
2020/12/22 00:34:34;;;;;;;4.13;0.87;;;12.80;99.90;;;;;;5077897;28;20342;-66
2020/12/22 00:36:59;;;;;;;1.20;0.47;;;12.80;99.90;;;;;;5095070;28;20031;-65
2020/12/22 00:39:29;;;;;;;1.20;0.33;;;12.70;99.90;;;;;;5095691;28;20306;-66
2020/12/22 00:41:56;;;;;;;1.30;0.30;;;12.70;99.90;;;;;;5095877;28;20074;-66
2020/12/22 00:44:23;;;;;;;2.60;0.80;;;12.70;99.90;;;;;;5094855;28;20070;-65
2020/12/22 00:46:49;;;;;;;1.10;0.30;;;12.80;99.90;;;;;;5096293;28;20028;-65
2020/12/22 00:49:16;;;;;;;5.10;0.67;;;12.70;99.90;;;;;;5096266;28;20078;-65
2020/12/22 00:51:41;;;;;;;3.00;0.47;;;12.70;99.90;;;;;;5096383;28;20032;-65
2020/12/22 00:54:07;;;;;;;2.33;0.40;;;12.70;99.90;;;;;;5096156;28;20043;-65
2020/12/22 00:56:33;;;;;;;0.97;0.30;;;12.60;99.90;;;;;;5096235;28;20319;-65
2020/12/22 00:58:58;;;;;;;4.07;0.97;;;12.60;99.90;;;;;;5095629;28;20113;-65
2020/12/22 01:01:24;;;;;;;2.60;0.30;;;12.70;99.90;;;;;;5095823;28;20122;-65
2020/12/22 01:03:50;;;;;;;3.40;0.47;;;12.70;99.90;;;;;;5096122;28;20028;-65
2020/12/22 01:06:16;;;;;;;1.93;0.47;;;12.60;99.90;;;;;;5095950;28;20384;-65
2020/12/22 01:08:43;;;;;;;2.73;0.80;;;12.60;99.90;;;;;;5096203;28;20031;-64
2020/12/22 01:11:09;;;;;;;4.53;0.40;;;12.60;99.90;;;;;;5095642;28;20043;-64
2020/12/22 01:13:34;;;;;;;2.07;0.33;;;12.60;99.90;;;;;;5096031;28;20028;-65
2020/12/22 01:16:00;;;;;;;3.23;0.60;;;12.60;99.90;;;;;;5077175;28;20040;-64
2020/12/22 01:18:25;;;;;;;2.87;1.03;;;12.60;99.90;;;;;;5095618;28;20043;-64
2020/12/22 01:20:51;;;;;;;2.83;0.80;;;12.50;99.90;;;;;;5095721;28;20032;-64
2020/12/22 01:23:17;;;;;;;2.43;1.10;;;12.50;99.90;;;;;;5096257;28;20060;-64
2020/12/22 01:25:43;;;;;;;4.27;1.00;;;12.50;99.90;;;;;;5096195;28;20326;-64
2020/12/22 01:28:11;;;;;;;6.20;1.67;;;12.30;99.90;;;;;;5095477;28;20134;-64
2020/12/22 01:30:37;;;;;;;4.83;0.90;;;12.30;99.90;;;;;;5095868;28;20084;-64
2020/12/22 01:33:04;;;;;;;4.63;0.70;;;12.30;99.90;;;;;;5095631;28;20040;-64
2020/12/22 01:35:29;;;;;;;3.93;1.20;;;12.30;99.90;;;;;;5095639;28;20036;-64
2020/12/22 01:37:55;;;;;;;5.63;0.83;;;12.30;99.90;;;;;;5095811;28;20043;-64
2020/12/22 01:40:21;;;;;;;3.40;1.07;;;12.30;99.90;;;;;;5092197;28;20069;-64
2020/12/22 01:42:46;;;;;;;6.50;1.07;;;12.20;99.90;;;;;;5094901;28;20032;-63
2020/12/22 01:45:13;;;;;;;5.97;1.83;;;12.20;99.90;;;;;;5095166;28;20357;-63
2020/12/22 01:47:49;;;;;;;3.43;1.20;;;12.10;99.90;;;;;;5098450;28;20102;-63
2020/12/22 01:50:16;;;;;;;2.33;0.90;;;12.10;99.90;;;;;;5099269;28;20147;-63
2020/12/22 01:52:44;;;;;;;7.77;1.23;;;12.00;99.90;;;;;;5099721;28;20049;-64
2020/12/22 01:55:09;;;;;;;7.13;1.30;;;11.90;99.90;;;;;;5099212;28;20032;-64
2020/12/22 01:57:35;;;;;;;4.90;1.20;;;11.90;99.90;;;;;;5099603;28;20323;-63
2020/12/22 02:00:02;;;;;;;7.65;1.30;;;11.90;99.90;;;;;;5098208;28;20160;-63
2020/12/22 02:02:28;;;;;;;4.17;0.90;;;11.80;99.90;;;;;;5099216;28;20086;-64
2020/12/22 02:04:54;;;;;;;;;;;11.80;99.90;;;;;;5100191;28;20032;-63
2020/12/22 02:07:19;;;;;;;;;;;11.70;99.90;;;;;;5099453;28;20219;-64
2020/12/22 02:09:49;;;;;;;4.03;0.90;;;11.70;99.90;;;;;;5099627;28;19915;-63
2020/12/22 02:12:18;;;;;;;5.13;1.33;;;11.70;99.90;;;;;;5099188;28;20020;-63
2020/12/22 02:14:44;;;;;;;;;;;11.60;99.90;;;;;;5099370;28;20028;-63
2020/12/22 02:17:10;;;;;;;;;;;11.60;99.90;;;;;;5098292;28;19904;-63
2020/12/22 02:19:36;;;;;;;;;;;11.50;99.90;;;;;;5098682;28;19939;-61
2020/12/22 02:22:02;;;;;;;;;;;11.50;99.90;;;;;;5098570;28;19908;-63
2020/12/22 02:24:30;;;;;;;3.40;1.50;;;11.50;99.90;;;;;;5099202;28;20345;-60
2020/12/22 02:26:56;;;;;;;6.10;1.13;;;11.50;99.90;;;;;;5098986;28;20028;-61
2020/12/22 02:29:22;;;;;;;3.37;1.33;;;11.50;99.90;;;;;;5098392;28;20074;-61
2020/12/22 02:31:48;;;;;;;11.57;1.30;;;11.50;99.90;;;;;;5097680;28;20024;-61
2020/12/22 02:34:13;;;;;;;7.43;1.50;;;11.40;99.90;;;;;;5099069;28;20034;-61
2020/12/22 02:36:40;;;;;;;7.63;1.30;;;11.40;99.90;;;;;;5098685;28;20047;-61
2020/12/22 02:39:05;;;;;;;7.63;2.53;;;11.40;99.90;;;;;;5097806;28;20477;-61
2020/12/22 02:41:32;;;;;;;9.80;2.13;;;11.30;99.90;;;;;;5098282;28;20119;-61
2020/12/22 02:43:57;;;;;;;8.67;1.77;;;11.30;99.90;;;;;;5099080;28;20111;-61
2020/12/22 02:46:23;;;;;;;10.03;2.43;;;11.30;99.90;;;;;;5098319;28;20051;-60
2020/12/22 02:48:49;;;;;;;8.43;2.77;;;11.30;99.90;;;;;;5098720;28;20055;-61
2020/12/22 02:51:14;;;;;;;6.57;2.10;;;11.20;99.90;;;;;;5097160;28;20427;-61
2020/12/22 02:53:40;;;;;;;6.20;2.23;;;11.20;99.90;;;;;;5098481;28;20338;-61
2020/12/22 02:56:06;;;;;;;8.35;2.85;;;11.20;99.90;;;;;;5097511;28;20031;-61
2020/12/22 02:58:31;;;;;;;7.00;1.90;;;11.20;99.90;;;;;;5098261;28;20450;-61
2020/12/22 03:00:57;;;;;;;10.60;2.40;;;11.20;99.90;;;;;;5097662;28;20191;-61
2020/12/22 03:03:23;;;;;;;6.77;2.47;;;11.20;99.90;;;;;;5097782;28;20051;-61
2020/12/22 03:05:48;;;;;;;;;;;11.10;99.90;;;;;;5098850;28;20077;-61
2020/12/22 03:08:14;;;;;;;12.63;2.63;;;11.10;99.90;;;;;;5098239;28;20200;-61
2020/12/22 03:10:39;;;;;;;;;;;11.00;99.90;;;;;;5097110;28;20645;-61
2020/12/22 03:13:05;;;;;;;;;;;11.00;99.90;;;;;;5098321;28;19959;-61
2020/12/22 03:15:30;;;;;;;;;;;11.00;99.90;;;;;;5098619;28;20234;-61
2020/12/22 03:17:56;;;;;;;;;;;10.90;99.90;;;;;;5098417;28;19908;-62
2020/12/22 03:20:24;;;;;;;;;;;10.90;99.90;;;;;;5097827;28;20401;-62
2020/12/22 03:22:49;;;;;;;;;;;10.90;99.90;;;;;;5098649;28;19987;-62
2020/12/22 03:25:15;;;;;;;;;;;10.80;99.90;;;;;;5096939;28;20010;-63
2020/12/22 03:27:40;;;;;;;;;;;10.80;99.90;;;;;;5098531;28;19967;-62
2020/12/22 03:30:10;;;;;;;;;;;10.70;99.90;;;;;;5098214;28;19934;-62
2020/12/22 03:32:36;;;;;;;;;;;10.80;99.90;;;;;;5098076;28;19908;-62
2020/12/22 03:35:03;;;;;;;;;;;10.70;99.90;;;;;;5098284;28;19962;-62
2020/12/22 03:37:28;;;;;;;;;;;10.70;99.90;;;;;;5098303;28;19962;-62
2020/12/22 03:39:55;;;;;;;;;;;10.60;99.90;;;;;;5098243;28;19955;-62
2020/12/22 03:42:21;;;;;;;;;;;10.60;99.90;;;;;;5098503;28;19927;-62
2020/12/22 03:44:48;;;;;;;12.67;2.27;;;10.60;99.90;;;;;;5097527;28;20299;-62
2020/12/22 03:47:15;;;;;;;10.53;2.27;;;10.50;99.90;;;;;;5096406;28;20127;-62
2020/12/22 03:49:41;;;;;;;6.50;3.13;;;10.50;99.90;;;;;;5096774;28;20135;-62
2020/12/22 03:52:07;;;;;;;;;;;10.50;99.90;;;;;;5098098;28;19950;-62
2020/12/22 03:54:33;;;;;;;;;;;10.50;99.90;;;;;;5097577;28;20265;-62
2020/12/22 03:56:58;;;;;;;;;;;10.50;99.90;;;;;;5097718;28;19939;-62
2020/12/22 03:59:25;;;;;;;;;;;10.40;99.90;;;;;;5097565;28;19950;-62
2020/12/22 04:01:51;;;;;;;;;;;10.40;99.90;;;;;;5097678;28;19954;-62
2020/12/22 04:04:20;;;;;;;;;;;10.40;99.90;;;;;;5098968;28;19916;-62
2020/12/22 04:06:46;;;;;;;;;;;10.30;99.90;;;;;;5102734;28;19915;-62
2020/12/22 04:09:12;;;;;;;;;;;10.30;99.90;;;;;;5101418;28;19908;-62
2020/12/22 04:11:39;;;;;;;;;;;10.20;99.90;;;;;;5100204;28;19944;-62
2020/12/22 04:14:09;;;;;;;;;;;10.20;99.90;;;;;;5097368;28;19908;-62
2020/12/22 04:16:34;;;;;;;;;;;10.20;99.90;;;;;;5095550;28;20298;-62
2020/12/22 04:19:00;;;;;;;;;;;10.20;99.90;;;;;;5097206;28;19913;-62
2020/12/22 04:21:26;;;;;;;;;;;10.10;99.90;;;;;;5097116;28;19938;-62
2020/12/22 04:23:52;;;;;;;;;;;10.10;99.90;;;;;;5097602;28;19909;-62
2020/12/22 04:26:17;;;;;;;;;;;10.10;99.90;;;;;;5097299;28;19916;-62
2020/12/22 04:28:43;;;;;;;;;;;10.10;99.90;;;;;;5096073;28;19912;-62
2020/12/22 04:31:08;;;;;;;;;;;10.10;99.90;;;;;;5097193;28;20375;-62
2020/12/22 04:33:34;;;;;;;;;;;10.00;99.90;;;;;;5096841;28;19912;-62
2020/12/22 04:35:59;;;;;;;;;;;10.00;99.90;;;;;;5095325;28;19915;-62
2020/12/22 04:38:24;;;;;;;;;;;10.00;99.90;;;;;;5097198;28;19916;-62
2020/12/22 04:40:51;;;;;;;;;;;10.00;99.90;;;;;;5095290;28;19916;-62
2020/12/22 04:43:17;;;;;;;;;;;10.00;99.90;;;;;;5097706;28;19912;-62
2020/12/22 04:45:42;;;;;;;;;;;10.10;99.90;;;;;;5096389;28;19919;-62
2020/12/22 04:48:11;;;;;;;;;;;10.10;99.90;;;;;;5096519;28;19916;-62
2020/12/22 04:50:37;;;;;;;;;;;10.20;99.90;;;;;;5096726;28;19922;-62
2020/12/22 04:53:02;;;;;;;;;;;10.20;99.90;;;;;;5096561;28;19908;-62
2020/12/22 04:55:28;;;;;;;;;;;10.20;99.90;;;;;;5097277;28;19916;-62
2020/12/22 04:57:55;;;;;;;;;;;10.20;99.90;;;;;;5096480;28;19912;-62
2020/12/22 05:00:20;;;;;;;;;;;10.20;99.90;;;;;;5097107;28;19923;-62
2020/12/22 05:02:48;;;;;;;;;;;10.20;99.90;;;;;;5094991;28;19908;-62
2020/12/22 05:05:14;;;;;;;;;;;10.20;99.90;;;;;;5097273;28;19908;-62
2020/12/22 05:07:40;;;;;;;;;;;10.20;99.90;;;;;;5096819;28;19912;-62
2020/12/22 05:10:07;;;;;;;;;;;10.20;99.90;;;;;;5097215;28;19912;-62
2020/12/22 05:12:32;;;;;;;;;;;10.10;99.90;;;;;;5096866;28;20214;-62
2020/12/22 05:14:59;;;;;;;;;;;10.20;99.90;;;;;;5096580;28;19916;-62
2020/12/22 05:17:25;;;;;;;;;;;10.10;99.90;;;;;;5096525;28;19908;-62
2020/12/22 05:19:51;;;;;;;;;;;10.10;99.90;;;;;;5095470;28;19922;-62
2020/12/22 05:22:16;;;;;;;;;;;10.10;99.90;;;;;;5098870;28;19912;-62
2020/12/22 05:24:42;;;;;;;;;;;10.10;99.90;;;;;;5099311;28;20239;-62
2020/12/22 05:27:08;;;;;;;;;;;10.10;99.90;;;;;;5100409;28;19916;-62
2020/12/22 05:29:34;;;;;;;;;;;10.10;99.90;;;;;;5099537;28;19912;-62
2020/12/22 05:32:00;;;;;;;;;;;10.10;99.90;;;;;;5100316;28;19908;-63
2020/12/22 05:34:27;;;;;;;;;;;10.10;99.90;;;;;;5100742;28;19916;-62
2020/12/22 05:36:56;;;;;;;;;;;10.10;99.90;;;;;;5099061;28;19919;-63
2020/12/22 05:39:22;;;;;;;;;;;10.10;99.90;;;;;;5100589;28;19960;-62
2020/12/22 05:41:47;;;;;;;;;;;10.10;99.90;;;;;;5100426;28;19908;-63
2020/12/22 05:44:13;;;;;;;;;;;10.00;99.90;;;;;;5099819;28;19919;-62
2020/12/22 05:46:39;;;;;;;;;;;10.00;99.90;;;;;;5100470;28;19908;-62
2020/12/22 05:49:07;;;;;;;;;;;9.90;99.90;;;;;;5099689;28;19920;-63
2020/12/22 05:51:32;;;;;;;;;;;9.90;99.90;;;;;;5100611;28;19915;-62
2020/12/22 05:54:17;;;;;;;;;;;9.90;99.90;;;;;;5099541;28;19912;-63
2020/12/22 05:56:42;;;;;;;;;;;9.80;99.90;;;;;;5100356;28;19908;-62
2020/12/22 05:59:20;;;;;;;;;;;9.70;99.90;;;;;;5099770;28;20358;-63
2020/12/22 06:01:46;;;;;;;;;;;9.70;99.90;;;;;;5100242;28;20010;-63
2020/12/22 06:04:12;;;;;;;;;;;9.70;99.90;;;;;;5099587;28;19919;-62
2020/12/22 06:06:37;;;;;;;;;;;9.60;99.90;;;;;;5100244;28;19912;-62
2020/12/22 06:09:03;;;;;;;;;;;9.60;99.90;;;;;;5099306;28;19961;-63
2020/12/22 06:11:29;;;;;;;;;;;9.60;99.90;;;;;;5098428;28;19978;-62
2020/12/22 06:13:56;;;;;;;;;;;9.60;99.90;;;;;;5099761;28;19995;-63
2020/12/22 06:16:22;;;;;;;;;;;9.60;99.90;;;;;;5099707;28;19915;-62
2020/12/22 06:18:51;;;;;;;;;;;9.70;99.90;;;;;;5099188;28;19916;-63
2020/12/22 06:21:20;;;;;;;;;;;9.60;99.90;;;;;;5099086;28;19912;-62
2020/12/22 06:23:50;;;;;;;;;;;9.70;99.90;;;;;;5098630;28;19919;-63
2020/12/22 06:26:18;;;;;;;;;;;9.70;99.90;;;;;;5099198;28;19908;-63
2020/12/22 06:28:44;;;;;;;;;;;9.70;99.90;;;;;;5100076;28;20291;-62
2020/12/22 06:31:23;;;;;;;;;;;9.70;99.90;;;;;;5099624;28;20045;-62
2020/12/22 06:33:49;;;;;;;;;;;9.70;99.90;;;;;;5099456;28;19912;-63
2020/12/22 06:36:17;;;;;;;;;;;9.70;99.90;;;;;;5098178;28;20206;-63
2020/12/22 06:38:54;;;;;;;;;;;9.70;99.90;;;;;;5099627;28;19946;-62
2020/12/22 06:41:26;;;;;;;;;;;9.70;99.90;;;;;;5099331;28;19912;-62
2020/12/22 06:43:55;;;;;;;;;;;9.70;99.90;;;;;;5099580;28;20244;-62
2020/12/22 06:46:33;;;;;;;;;;;9.70;99.90;;;;;;5099296;28;19915;-63
2020/12/22 06:48:58;;;;;;;;;;;9.70;99.90;;;;;;5101763;28;19920;-63
2020/12/22 06:51:28;;;;;;;;;;;9.60;99.90;;;;;;5101859;28;19909;-62
2020/12/22 06:53:54;;;;;;;;;;;9.60;99.90;;;;;;5099947;28;19912;-62
2020/12/22 06:56:37;;;;;;;;;;;9.60;99.90;;;;;;5099227;28;20214;-63
2020/12/22 06:59:02;;;;;;;;;;;9.60;99.90;;;;;;5099180;28;19908;-62
2020/12/22 07:01:28;;;;;;;;;;;9.60;99.90;;;;;;5098928;28;19924;-62
2020/12/22 07:04:09;;;;;;;;;;;9.60;99.90;;;;;;5098929;28;20295;-62
2020/12/22 07:06:48;;;;;;;;;;;9.60;99.90;;;;;;5099045;28;19912;-63
2020/12/22 07:09:15;;;;;;;;;;;9.70;99.90;;;;;;5098990;28;20287;-62
2020/12/22 07:11:40;;;;;;;;;;;9.60;99.90;;;;;;5097025;28;20326;-62
2020/12/22 07:14:06;;;;;;;;;;;9.60;99.90;;;;;;5098561;28;19916;-62
2020/12/22 07:16:35;;;;;;;;;;;9.60;99.90;;;;;;5097388;28;19912;-62
2020/12/22 07:19:02;;;;;;;;;;;9.70;99.90;;;;;;5096677;28;20237;-63
2020/12/22 07:21:31;;;;;;;;;;;9.60;99.90;;;;;;5098328;28;19923;-63
2020/12/22 07:23:58;;;;;;;;;;;9.70;99.90;;;;;;5099081;28;19912;-62
2020/12/22 07:26:24;;;;;;;;;;;9.60;99.90;;;;;;5098081;28;19919;-63
2020/12/22 07:28:51;;;;;;;;;;;9.60;99.90;;;;;;5098851;28;19908;-62
2020/12/22 07:31:19;;;;;;;;;;;9.60;99.90;;;;;;5098225;28;19913;-62
2020/12/22 07:33:45;;;;;;;;;;;9.60;99.90;;;;;;5098809;28;19908;-63
2020/12/22 07:36:10;;;;;;;;;;;9.60;99.90;;;;;;5098142;28;19920;-62
2020/12/22 07:38:36;;;;;;;;;;;9.60;99.90;;;;;;5097357;28;19922;-62
2020/12/22 07:41:01;;;;;;;;;;;9.50;99.90;;;;;;5096685;28;19998;-62
2020/12/22 07:43:27;;;;;;;;;;;9.50;99.90;;;;;;5098138;28;19912;-62
2020/12/22 07:45:52;;;;;;;;;;;9.50;99.90;;;;;;5097302;28;19912;-62
2020/12/22 07:48:19;;;;;;;;;;;9.50;99.90;;;;;;5098007;28;19916;-62
2020/12/22 07:50:50;;;;;;;;;;;9.50;99.90;;;;;;5097726;28;19920;-62
2020/12/22 07:53:16;;;;;;;;;;;9.50;99.90;;;;;;5098016;28;19912;-62
2020/12/22 07:55:42;;;;;;;;;;;9.50;99.90;;;;;;5098072;28;20362;-62
2020/12/22 07:58:08;;;;;;;;;;;9.40;99.90;;;;;;5096288;28;19916;-63
2020/12/22 08:00:34;;;;;;;;;;;9.40;99.90;;;;;;5083843;28;19966;-62
2020/12/22 08:03:15;;;;;;;;;;;9.40;99.90;;;;;;5097863;28;20003;-63
2020/12/22 08:05:55;;;;;;;;;;;9.50;99.90;;;;;;5098108;28;19915;-63
2020/12/22 08:08:20;;;;;;;;;;;9.50;99.90;;;;;;5097569;28;19912;-63
2020/12/22 08:10:46;;;;;;;;;;;9.40;99.90;;;;;;5098111;28;19912;-63
2020/12/22 08:13:12;;;;;;;;;;;9.30;99.90;;;;;;5097389;28;20396;-63
2020/12/22 08:15:37;;;;;;;;;;;9.30;99.90;;;;;;5097663;28;19939;-63
2020/12/22 08:18:03;;;;;;;;;;;9.20;99.90;;;;;;5097342;28;19908;-63
2020/12/22 08:20:29;;;;;;;;;;;9.20;99.90;;;;;;5095432;28;19926;-63
2020/12/22 08:22:54;;;;;;;;;;;9.10;99.90;;;;;;5097126;28;19969;-63
2020/12/22 08:25:20;;;;;;;;;;;9.00;99.90;;;;;;5095490;28;19918;-63
2020/12/22 08:27:45;;;;;;;;;;;9.00;99.90;;;;;;5097089;28;20008;-63
2020/12/22 08:30:20;;;;;;;;;;;9.00;99.90;;;;;;5097062;28;19912;-63
2020/12/22 08:32:46;;;;;;;;;;;9.00;99.90;;;;;;5096910;28;20005;-63
2020/12/22 08:35:13;;;;;;;;;;;9.00;99.90;;;;;;5096848;28;20254;-63
2020/12/22 08:37:38;;;;;;;;;;;9.00;99.90;;;;;;5096460;28;19957;-63
2020/12/22 08:40:04;;;;;;;;;;;9.00;99.90;;;;;;5096699;28;19911;-63
2020/12/22 08:42:30;;;;;;;;;;;9.10;99.90;;;;;;5096057;28;20382;-63
2020/12/22 08:44:55;;;;;;;;;;;9.00;99.90;;;;;;5096767;28;19919;-63
2020/12/22 08:47:21;;;;;;;;;;;9.00;99.90;;;;;;5096677;28;19918;-63
2020/12/22 08:49:47;;;;;;;;;;;9.00;99.90;;;;;;5096216;28;20297;-63
2020/12/22 08:52:16;;;;;;;;;;;9.00;99.90;;;;;;5096356;28;19923;-63
2020/12/22 08:54:43;;;;;;;;;;;9.00;99.90;;;;;;5096418;28;19916;-63
2020/12/22 08:57:09;;;;;;;;;;;9.10;99.90;;;;;;5096153;28;19965;-63
2020/12/22 08:59:34;;;;;;;;;;;9.20;99.90;;;;;;5096202;28;19912;-64
2020/12/22 09:02:00;;;;;;;;;;;9.30;99.90;;;;;;5090813;28;19913;-64
2020/12/22 09:04:29;;;;;;;;;;;9.50;99.90;;;;;;5084977;28;19924;-64
2020/12/22 09:06:55;;;;;;;;;;;9.50;99.90;;;;;;5092813;28;19923;-64
2020/12/22 09:09:23;;;;;;;;;;;9.50;99.90;;;;;;5090452;28;19916;-65
2020/12/22 09:11:49;;;;;;;;;;;9.60;99.90;;;;;;5085663;28;20093;-64
2020/12/22 09:14:15;;;;;;;;;;;9.70;99.90;;;;;;5090591;28;19908;-64
2020/12/22 09:16:45;;;;;;;;;;;9.70;99.90;;;;;;5094915;28;19971;-64
2020/12/22 09:19:10;;;;;;;;;;;9.70;99.90;;;;;;5090640;28;19908;-64
2020/12/22 09:21:36;;;;;;;;;;;9.80;99.90;;;;;;5081794;28;19920;-64
2020/12/22 09:24:01;;;;;;;;;;;9.90;99.90;;;;;;5093203;28;19919;-64
2020/12/22 09:26:27;;;;;;;;;;;9.90;99.90;;;;;;5095193;28;20388;-65
2020/12/22 09:28:52;;;;;;;;;;;10.00;99.90;;;;;;5094353;28;19948;-65
2020/12/22 09:31:24;;;;;;;;;;;9.90;99.90;;;;;;5085571;28;19923;-65
2020/12/22 09:33:50;;;;;;;;;;;10.00;99.90;;;;;;5095999;28;20152;-66
2020/12/22 09:36:15;;;;;;;;;;;10.10;99.90;;;;;;5096177;28;19931;-64
2020/12/22 09:38:41;;;;;;;;;;;10.10;99.90;;;;;;5096178;28;19912;-64
2020/12/22 09:41:06;;;;;;;;;;;10.20;99.90;;;;;;5095881;28;20202;-63
2020/12/22 09:43:32;;;;;;;;;;;10.20;99.90;;;;;;5096236;28;19908;-64
2020/12/22 09:45:57;;;;;;;;;;;10.20;99.90;;;;;;5096102;28;19955;-64
2020/12/22 09:48:23;;;;;;;;;;;10.30;99.90;;;;;;5096155;28;19954;-64
2020/12/22 09:50:48;;;;;;;;;;;10.30;99.90;;;;;;5095937;28;19966;-64
2020/12/22 09:53:14;;;;;;;;;;;10.20;99.90;;;;;;5095170;28;19912;-65
2020/12/22 09:55:39;;;;;;;;;;;10.20;99.90;;;;;;5095108;28;19919;-64
2020/12/22 09:58:05;;;;;;;;;;;10.30;99.90;;;;;;5077845;28;19912;-64
2020/12/22 10:00:30;;;;;;;;;;;10.20;99.90;;;;;;5096634;28;19927;-64
2020/12/22 10:02:56;;;;;;;;;;;10.20;99.90;;;;;;5094385;28;20307;-64
2020/12/22 10:05:21;;;;;;;;;;;10.20;99.90;;;;;;5095271;28;19912;-64
2020/12/22 10:07:47;;;;;;;;;;;10.30;99.90;;;;;;5095602;28;19909;-64
2020/12/22 10:10:12;;;;;;;;;;;10.30;99.90;;;;;;5100078;28;20329;-65
2020/12/22 10:12:38;;;;;;;;;;;10.30;99.90;;;;;;5099656;28;19916;-64
2020/12/22 10:15:04;;;;;;;;;;;10.40;99.90;;;;;;5099718;28;19998;-64
2020/12/22 10:17:31;;;;;;;;;;;10.40;99.90;;;;;;5098117;28;19947;-64
2020/12/22 10:19:56;;;;;;;;;;;10.50;99.90;;;;;;5099124;28;19952;-64
2020/12/22 10:22:22;;;;;;;;;;;10.50;99.90;;;;;;5099200;28;20361;-64
2020/12/22 10:24:48;;;;;;;;;;;10.50;99.90;;;;;;5099605;28;19918;-65
2020/12/22 10:27:13;;;;;;;;;;;10.40;99.90;;;;;;5099419;28;19907;-65
2020/12/22 10:29:39;;;;;;;;;;;10.60;99.90;;;;;;5099569;28;19919;-65
2020/12/22 10:32:04;;;;;;;;;;;10.70;99.90;;;;;;5099390;28;19919;-64
2020/12/22 10:34:30;;;;;;;;;;;10.80;99.90;;;;;;5099222;28;19912;-64
2020/12/22 10:36:56;;;;;;;;;;;10.80;99.90;;;;;;5097670;28;19912;-64
2020/12/22 10:39:22;;;;;;;;;;;10.80;99.90;;;;;;5099073;28;19919;-63
2020/12/22 10:41:48;;;;;;;;;;;10.70;99.90;;;;;;5098781;28;19923;-63
2020/12/22 10:44:13;;;;;;;;;;;10.80;99.90;;;;;;5098315;28;19909;-65
2020/12/22 10:46:39;;;;;;;;;;;10.80;99.90;;;;;;5099032;28;19956;-64
2020/12/22 10:49:04;;;;;;;;;;;10.80;99.90;;;;;;5098077;28;19916;-65
2020/12/22 10:51:31;;;;;;;;;;;10.80;99.90;;;;;;5099042;28;19912;-65
2020/12/22 10:53:57;;;;;;;;;;;10.70;99.90;;;;;;5097279;28;19913;-65
2020/12/22 10:56:23;;;;;;;;;;;10.80;99.90;;;;;;5098966;28;19922;-64
2020/12/22 10:58:48;;;;;;;;;;;10.80;99.90;;;;;;5098506;28;20007;-64
2020/12/22 11:01:14;;;;;;;;;;;10.80;99.90;;;;;;5098442;28;19924;-65
2020/12/22 11:03:40;;;;;;;;;;;10.80;99.90;;;;;;5101637;28;19912;-65
2020/12/22 11:06:31;;;;;;;;;;;10.80;99.90;;;;;;5095342;28;19916;-66
2020/12/22 11:08:57;;;;;;;;;;;10.80;99.90;;;;;;5100133;28;19920;-66
2020/12/22 11:11:24;;;;;;;;;;;10.80;99.90;;;;;;5099023;28;19920;-64
2020/12/22 11:13:49;;;;;;;;;;;10.80;99.90;;;;;;5101288;28;19913;-65
2020/12/22 11:16:15;;;;;;;;;;;10.90;99.90;;;;;;5106438;28;20416;-66
2020/12/22 11:18:40;;;;;;;;;;;10.80;99.90;;;;;;5096610;28;19943;-67
2020/12/22 11:21:12;;;;;;;;;;;10.80;99.90;;;;;;5101996;28;20014;-67
2020/12/22 11:23:37;;;;;;;;;;;10.80;99.90;;;;;;5101335;28;19920;-67
2020/12/22 11:26:04;;;;;;;;;;;10.90;99.90;;;;;;5098670;28;20219;-66
2020/12/22 11:28:29;;;;;;;;;;;10.80;99.90;;;;;;5101724;28;19916;-67
2020/12/22 11:30:55;;;;;;;;;;;10.80;99.90;;;;;;5103521;28;20300;-67
2020/12/22 11:33:20;;;;;;;;;;;10.80;99.90;;;;;;5104001;28;19920;-67
2020/12/22 11:35:46;;;;;;;;;;;10.80;99.90;;;;;;5099935;28;19982;-67
2020/12/22 11:38:11;;;;;;;;;;;10.80;99.90;;;;;;5104382;28;20326;-67
2020/12/22 11:40:37;;;;;;;;;;;10.80;99.90;;;;;;5097487;28;20019;-69
2020/12/22 11:43:02;;;;;;;;;;;10.80;99.90;;;;;;5106985;28;19916;-70
2020/12/22 11:45:29;;;;;;;;;;;10.80;99.90;;;;;;5102654;28;19950;-66
2020/12/22 11:47:54;;;;;;;;;;;10.90;99.90;;;;;;5101286;28;20315;-66
2020/12/22 11:50:20;;;;;;;;;;;10.80;99.90;;;;;;5105269;28;19924;-65
2020/12/22 11:52:45;;;;;;;;;;;10.70;99.90;;;;;;5102870;28;19920;-65
2020/12/22 11:55:11;;;;;;;;;;;10.80;99.90;;;;;;5101346;28;19987;-66
2020/12/22 11:57:36;;;;;;;;;;;10.70;99.90;;;;;;5102691;28;19916;-66
2020/12/22 12:00:04;;;;;;;;;;;10.70;99.90;;;;;;5102870;28;19923;-66
2020/12/22 12:02:30;;;;;;;;;;;10.70;99.90;;;;;;5101176;28;19983;-65
2020/12/22 12:04:55;;;;;;;;;;;10.80;99.90;;;;;;5099034;28;20006;-66
2020/12/22 12:07:21;;;;;;;;;;;10.80;99.90;;;;;;5097836;28;19922;-67
2020/12/22 12:09:46;;;;;;;;;;;10.70;99.90;;;;;;5102463;28;19920;-66
2020/12/22 12:12:12;;;;;;;;;;;10.70;99.90;;;;;;5083354;28;20051;-68
2020/12/22 12:14:37;;;;;;;;;;;10.60;99.90;;;;;;5101619;28;19927;-68
2020/12/22 12:17:03;;;;;;;;;;;10.60;99.90;;;;;;5103107;28;19916;-67
2020/12/22 12:19:32;;;;;;;;;;;10.50;99.90;;;;;;5098493;28;19924;-67
2020/12/22 12:21:58;;;;;;;;;;;10.70;99.90;;;;;;5098390;28;20006;-71
2020/12/22 12:24:24;;;;;;;;;;;10.60;99.90;;;;;;5098628;28;20389;-69
2020/12/22 12:26:49;;;;;;;;;;;10.60;99.90;;;;;;5100722;28;19920;-68
2020/12/22 12:29:15;;;;;;;;;;;10.70;99.90;;;;;;5104541;28;20011;-67
2020/12/22 12:31:41;;;;;;;;;;;10.60;99.90;;;;;;5101136;28;19944;-68
2020/12/22 12:34:08;;;;;;;;;;;10.70;99.90;;;;;;5099383;28;19966;-68
2020/12/22 12:36:34;;;;;;;;;;;10.80;99.90;;;;;;5100017;28;20000;-68
2020/12/22 12:39:00;;;;;;;;;;;10.70;99.90;;;;;;5097589;28;19927;-68
2020/12/22 12:41:26;;;;;;;;;;;10.80;99.90;;;;;;5100237;28;19932;-68
2020/12/22 12:43:51;;;;;;;;;;;10.80;99.90;;;;;;5098455;28;19927;-69
2020/12/22 12:46:17;;;;;;;;;;;10.70;99.90;;;;;;5104610;28;19916;-68
2020/12/22 12:48:42;;;;;;;;;;;10.70;99.90;;;;;;5100952;28;19920;-68
2020/12/22 12:51:08;;;;;;;;;;;10.70;99.90;;;;;;5098601;28;19952;-69
2020/12/22 12:53:36;;;;;;;;;;;10.70;99.90;;;;;;5097765;28;19923;-69
2020/12/22 12:56:02;;;;;;;;;;;10.60;99.90;;;;;;5099467;28;20027;-67
2020/12/22 12:58:27;;;;;;;;;;;10.60;99.90;;;;;;5103948;28;20404;-67
2020/12/22 13:00:53;;;;;;;;;;;10.60;99.90;;;;;;5103341;28;20018;-67
2020/12/22 13:03:19;;;;;;;;;;;10.70;99.90;;;;;;5099333;28;20008;-67
2020/12/22 13:05:44;;;;;;;;;;;10.70;99.90;;;;;;5097182;28;19924;-67
2020/12/22 13:08:10;;;;;;;;;;;10.60;99.90;;;;;;5102300;28;19962;-67
2020/12/22 13:10:35;;;;;;;;;;;10.50;99.90;;;;;;5100136;28;19959;-67
2020/12/22 13:13:01;;;;;;;;;;;10.40;99.90;;;;;;5098820;28;19961;-68
2020/12/22 13:15:26;;;;;;;;;;;10.40;99.90;;;;;;5097228;28;20063;-66
2020/12/22 13:17:52;;;;;;;;;;;10.40;99.90;;;;;;5099671;28;19944;-66
2020/12/22 13:20:18;;;;;;;;;;;10.40;99.90;;;;;;5101057;28;20326;-66
2020/12/22 13:22:43;;;;;;;;;;;10.30;99.90;;;;;;5093679;28;19920;-66
2020/12/22 13:25:09;;;;;;;;;;;10.20;99.90;;;;;;5100526;28;20314;-66
2020/12/22 13:27:34;;;;;;;;;;;10.20;99.90;;;;;;5099257;28;19981;-67
2020/12/22 13:30:00;;;;;;;;;;;10.00;99.90;;;;;;5101043;28;19923;-67
2020/12/22 13:32:25;;;;;;;;;;;10.10;99.90;;;;;;5099030;28;19924;-66
2020/12/22 13:34:51;;;;;;;;;;;10.20;99.90;;;;;;5102047;28;19919;-66
2020/12/22 13:37:16;;;;;;;;;;;10.10;99.90;;;;;;5101736;28;20280;-66
2020/12/22 13:39:42;;;;;;;;;;;10.10;99.90;;;;;;5096216;28;19920;-67
2020/12/22 13:42:07;;;;;;;;;;;10.20;99.90;;;;;;5100374;28;19920;-65
2020/12/22 13:44:33;;;;;;;;;;;10.10;99.90;;;;;;5105270;28;19912;-66
2020/12/22 13:47:07;;;;;;;;;;;10.10;99.90;;;;;;5102364;28;19924;-66
2020/12/22 13:49:33;;;;;;;;;;;10.00;99.90;;;;;;5102035;28;19919;-67
2020/12/22 13:51:59;;;;;;;;;;;9.90;99.90;;;;;;5103240;28;19920;-66
2020/12/22 13:54:24;;;;;;;;;;;10.00;99.90;;;;;;5106116;28;19999;-66